Aeroporto :
LOGIN :

Iscrizione | Disclaimer

   EN    FR    IT 

 










Sommario :    VFR   VFR Marginale   IFR   IFR Intensivo   IFR Molto Intensivo
Visibilità : 
Base nubi : 
>= 8 km
>= 3000ft
5 / 8 km
1000 / 3000 ft
1500m / 5 km
500 / 1000 ft
800 / 1500m
200 / 500 ft
< 800m
< 200 ft
Simboli :   Temporali  Nebbia  Neve Forte  Precipitazioni Forti  Vento > 20 kt
SIGMETs :   Varie  Temporali  Ghiacco  Turbolenza  Onda orograficha  Ceneri Vulcaniche






- Altitudine del aeroporto : 183 ft
- Codice IATA : HAJ


EDDV - Hanover/Langenhagen Int.

ULTIMO METAR :
  • 200420Z 08006KT CAVOK 11/08 Q1020 NOSIG

METARs OBSOLETI :
  • 200350Z 09005KT CAVOK 11/09 Q1020 NOSIG
  • 200320Z 07006KT CAVOK 11/09 Q1020
  • 200250Z 06005KT CAVOK 11/09 Q1020
  • 200220Z 07005KT CAVOK 11/09 Q1020
  • 200150Z 06005KT 9999 BKN047 11/09 Q1020

TAF TAF EDDV
Valido dal 20 a 00 ore il 21 a 00 ore UTC


192300Z 2000/2024 07006KT 9999 BKN045
BECMG 2018/2021 VRB03KT



MetMap, La meteo Aeronautica in un colpo d'occhio ! - Copyright ORBIFLY Dicembre 2007 - Disclaimer

ORBIFLY MET'MAP TEAM :

Programmazione e sviluppo : Alexandra Zaïnal
Concezione : Baudouin d'Aumeries
Aiuto per la programmazione : Marc-Olivier Méhu
Supporto tecnico e logistico : Manuel Goepfert
Aiuto per la traduzione : Arnaldo La Scala

Contatto : metmap@orbifly.com




FONTI E CREDITI :

   NOAA